sensor_id;sensor_type;location;lat;lon;timestamp;P1;durP1;ratioP1;P2;durP2;ratioP2
23684;SDS011;12020;51.384;6.908;2024-03-17T00:00:10;6.67;;;3.90;;
23684;SDS011;12020;51.384;6.908;2024-03-17T00:02:42;7.40;;;4.45;;
23684;SDS011;12020;51.384;6.908;2024-03-17T00:07:37;6.03;;;5.10;;
23684;SDS011;12020;51.384;6.908;2024-03-17T00:10:03;6.30;;;5.10;;
23684;SDS011;12020;51.384;6.908;2024-03-17T00:12:33;6.93;;;5.15;;
23684;SDS011;12020;51.384;6.908;2024-03-17T00:17:33;6.13;;;5.53;;
23684;SDS011;12020;51.384;6.908;2024-03-17T00:22:47;6.70;;;5.78;;
23684;SDS011;12020;51.384;6.908;2024-03-17T00:25:17;6.57;;;5.38;;
23684;SDS011;12020;51.384;6.908;2024-03-17T00:27:52;7.00;;;5.75;;
23684;SDS011;12020;51.384;6.908;2024-03-17T00:30:20;7.47;;;5.93;;
23684;SDS011;12020;51.384;6.908;2024-03-17T00:32:46;8.23;;;5.72;;
23684;SDS011;12020;51.384;6.908;2024-03-17T00:35:13;7.50;;;5.40;;
23684;SDS011;12020;51.384;6.908;2024-03-17T00:37:49;7.68;;;5.65;;
23684;SDS011;12020;51.384;6.908;2024-03-17T00:40:22;6.97;;;5.50;;
23684;SDS011;12020;51.384;6.908;2024-03-17T00:42:48;7.75;;;5.28;;
23684;SDS011;12020;51.384;6.908;2024-03-17T00:45:14;6.40;;;4.90;;
23684;SDS011;12020;51.384;6.908;2024-03-17T00:47:41;6.45;;;4.88;;
23684;SDS011;12020;51.384;6.908;2024-03-17T00:50:08;8.07;;;5.93;;
23684;SDS011;12020;51.384;6.908;2024-03-17T00:52:41;8.35;;;5.80;;
23684;SDS011;12020;51.384;6.908;2024-03-17T00:55:08;7.05;;;5.70;;
23684;SDS011;12020;51.384;6.908;2024-03-17T00:57:35;7.00;;;5.10;;
23684;SDS011;12020;51.384;6.908;2024-03-17T01:00:03;6.93;;;5.10;;
23684;SDS011;12020;51.384;6.908;2024-03-17T01:02:30;7.22;;;5.20;;
23684;SDS011;12020;51.384;6.908;2024-03-17T01:04:56;7.70;;;5.03;;
23684;SDS011;12020;51.384;6.908;2024-03-17T01:07:24;6.68;;;4.90;;
23684;SDS011;12020;51.384;6.908;2024-03-17T01:09:52;6.82;;;4.82;;
23684;SDS011;12020;51.384;6.908;2024-03-17T01:12:20;6.53;;;4.70;;
23684;SDS011;12020;51.384;6.908;2024-03-17T01:14:49;7.13;;;4.80;;
23684;SDS011;12020;51.384;6.908;2024-03-17T01:19:51;6.93;;;4.72;;
23684;SDS011;12020;51.384;6.908;2024-03-17T01:22:19;5.55;;;4.78;;
23684;SDS011;12020;51.384;6.908;2024-03-17T01:24:46;4.40;;;4.00;;
23684;SDS011;12020;51.384;6.908;2024-03-17T01:27:13;4.55;;;4.00;;
23684;SDS011;12020;51.384;6.908;2024-03-17T01:29:51;7.20;;;5.10;;
23684;SDS011;12020;51.384;6.908;2024-03-17T01:32:17;7.00;;;4.55;;
23684;SDS011;12020;51.384;6.908;2024-03-17T01:34:44;5.40;;;4.60;;
23684;SDS011;12020;51.384;6.908;2024-03-17T01:37:11;4.87;;;4.30;;
23684;SDS011;12020;51.384;6.908;2024-03-17T01:39:39;7.67;;;4.70;;
23684;SDS011;12020;51.384;6.908;2024-03-17T01:42:05;6.25;;;5.50;;
23684;SDS011;12020;51.384;6.908;2024-03-17T01:44:31;6.20;;;5.10;;
23684;SDS011;12020;51.384;6.908;2024-03-17T01:46:57;6.23;;;4.70;;
23684;SDS011;12020;51.384;6.908;2024-03-17T01:49:25;6.40;;;4.40;;
23684;SDS011;12020;51.384;6.908;2024-03-17T01:51:52;7.95;;;5.03;;
23684;SDS011;12020;51.384;6.908;2024-03-17T01:54:19;7.05;;;4.78;;
23684;SDS011;12020;51.384;6.908;2024-03-17T01:59:17;6.15;;;4.55;;
23684;SDS011;12020;51.384;6.908;2024-03-17T02:01:44;7.87;;;4.90;;
23684;SDS011;12020;51.384;6.908;2024-03-17T02:04:10;6.13;;;4.78;;
23684;SDS011;12020;51.384;6.908;2024-03-17T02:06:37;5.93;;;4.50;;
23684;SDS011;12020;51.384;6.908;2024-03-17T02:09:04;5.55;;;4.57;;
23684;SDS011;12020;51.384;6.908;2024-03-17T02:11:30;6.45;;;5.00;;
23684;SDS011;12020;51.384;6.908;2024-03-17T02:13:59;6.40;;;4.75;;
23684;SDS011;12020;51.384;6.908;2024-03-17T02:16:26;6.28;;;4.80;;
23684;SDS011;12020;51.384;6.908;2024-03-17T02:18:55;7.78;;;5.35;;
23684;SDS011;12020;51.384;6.908;2024-03-17T02:21:24;6.63;;;5.20;;
23684;SDS011;12020;51.384;6.908;2024-03-17T02:23:59;7.23;;;5.07;;
23684;SDS011;12020;51.384;6.908;2024-03-17T02:26:28;6.53;;;4.90;;
23684;SDS011;12020;51.384;6.908;2024-03-17T02:28:55;7.30;;;4.88;;
23684;SDS011;12020;51.384;6.908;2024-03-17T02:31:20;6.60;;;5.18;;
23684;SDS011;12020;51.384;6.908;2024-03-17T02:33:49;8.07;;;5.20;;
23684;SDS011;12020;51.384;6.908;2024-03-17T02:36:15;8.10;;;5.07;;
23684;SDS011;12020;51.384;6.908;2024-03-17T02:38:42;6.10;;;5.20;;
23684;SDS011;12020;51.384;6.908;2024-03-17T02:41:27;7.10;;;4.70;;
23684;SDS011;12020;51.384;6.908;2024-03-17T02:43:58;8.00;;;5.47;;
23684;SDS011;12020;51.384;6.908;2024-03-17T02:46:24;7.50;;;5.35;;
23684;SDS011;12020;51.384;6.908;2024-03-17T02:48:51;7.32;;;5.40;;
23684;SDS011;12020;51.384;6.908;2024-03-17T02:51:20;6.15;;;5.50;;
23684;SDS011;12020;51.384;6.908;2024-03-17T02:53:48;8.77;;;6.20;;
23684;SDS011;12020;51.384;6.908;2024-03-17T02:56:18;7.10;;;5.55;;
23684;SDS011;12020;51.384;6.908;2024-03-17T02:58:52;8.95;;;6.20;;
23684;SDS011;12020;51.384;6.908;2024-03-17T03:01:20;9.13;;;6.75;;
23684;SDS011;12020;51.384;6.908;2024-03-17T03:03:46;7.47;;;6.53;;
23684;SDS011;12020;51.384;6.908;2024-03-17T03:06:13;8.50;;;6.40;;
23684;SDS011;12020;51.384;6.908;2024-03-17T03:08:40;9.45;;;6.60;;
23684;SDS011;12020;51.384;6.908;2024-03-17T03:11:08;8.20;;;6.47;;
23684;SDS011;12020;51.384;6.908;2024-03-17T03:13:39;8.63;;;6.65;;
23684;SDS011;12020;51.384;6.908;2024-03-17T03:16:07;9.07;;;7.35;;
23684;SDS011;12020;51.384;6.908;2024-03-17T03:18:34;9.98;;;7.38;;
23684;SDS011;12020;51.384;6.908;2024-03-17T03:21:02;8.82;;;7.22;;
23684;SDS011;12020;51.384;6.908;2024-03-17T03:26:01;9.63;;;7.75;;
23684;SDS011;12020;51.384;6.908;2024-03-17T03:28:31;10.95;;;8.23;;
23684;SDS011;12020;51.384;6.908;2024-03-17T03:31:02;9.77;;;7.78;;
23684;SDS011;12020;51.384;6.908;2024-03-17T03:33:28;9.63;;;8.07;;
23684;SDS011;12020;51.384;6.908;2024-03-17T03:35:58;10.23;;;8.40;;
23684;SDS011;12020;51.384;6.908;2024-03-17T03:38:25;9.48;;;8.48;;
23684;SDS011;12020;51.384;6.908;2024-03-17T03:43:21;12.57;;;8.45;;
23684;SDS011;12020;51.384;6.908;2024-03-17T03:45:48;9.93;;;7.97;;
23684;SDS011;12020;51.384;6.908;2024-03-17T03:48:22;9.17;;;8.20;;
23684;SDS011;12020;51.384;6.908;2024-03-17T03:50:49;10.85;;;8.35;;
23684;SDS011;12020;51.384;6.908;2024-03-17T03:53:16;9.87;;;8.67;;
23684;SDS011;12020;51.384;6.908;2024-03-17T03:55:42;10.67;;;9.10;;
23684;SDS011;12020;51.384;6.908;2024-03-17T03:58:16;10.35;;;8.90;;
23684;SDS011;12020;51.384;6.908;2024-03-17T04:00:42;11.57;;;8.95;;
23684;SDS011;12020;51.384;6.908;2024-03-17T04:03:08;11.18;;;9.10;;
23684;SDS011;12020;51.384;6.908;2024-03-17T04:08:04;10.82;;;9.45;;
23684;SDS011;12020;51.384;6.908;2024-03-17T04:10:30;10.55;;;9.07;;
23684;SDS011;12020;51.384;6.908;2024-03-17T04:12:56;12.85;;;9.45;;
23684;SDS011;12020;51.384;6.908;2024-03-17T04:15:23;12.20;;;9.07;;
23684;SDS011;12020;51.384;6.908;2024-03-17T04:17:51;12.20;;;9.65;;
23684;SDS011;12020;51.384;6.908;2024-03-17T04:20:18;12.87;;;9.77;;
23684;SDS011;12020;51.384;6.908;2024-03-17T04:22:46;12.93;;;10.32;;
23684;SDS011;12020;51.384;6.908;2024-03-17T04:27:44;12.48;;;10.48;;
23684;SDS011;12020;51.384;6.908;2024-03-17T04:30:10;12.73;;;10.90;;
23684;SDS011;12020;51.384;6.908;2024-03-17T04:32:37;15.93;;;10.60;;
23684;SDS011;12020;51.384;6.908;2024-03-17T04:35:04;12.15;;;10.45;;
23684;SDS011;12020;51.384;6.908;2024-03-17T04:40:05;12.10;;;10.57;;
23684;SDS011;12020;51.384;6.908;2024-03-17T04:42:36;13.00;;;10.73;;
23684;SDS011;12020;51.384;6.908;2024-03-17T04:45:05;11.68;;;9.77;;
23684;SDS011;12020;51.384;6.908;2024-03-17T04:47:33;13.38;;;10.20;;
23684;SDS011;12020;51.384;6.908;2024-03-17T04:49:58;12.32;;;9.65;;
23684;SDS011;12020;51.384;6.908;2024-03-17T04:52:27;12.38;;;9.65;;
23684;SDS011;12020;51.384;6.908;2024-03-17T04:54:55;11.93;;;9.27;;
23684;SDS011;12020;51.384;6.908;2024-03-17T04:57:21;10.68;;;9.40;;
23684;SDS011;12020;51.384;6.908;2024-03-17T04:59:47;11.15;;;8.93;;
23684;SDS011;12020;51.384;6.908;2024-03-17T05:02:14;10.93;;;9.65;;
23684;SDS011;12020;51.384;6.908;2024-03-17T05:04:40;11.27;;;9.15;;
23684;SDS011;12020;51.384;6.908;2024-03-17T05:07:08;10.60;;;8.65;;
23684;SDS011;12020;51.384;6.908;2024-03-17T05:09:34;10.65;;;8.73;;
23684;SDS011;12020;51.384;6.908;2024-03-17T05:12:02;9.40;;;8.38;;
23684;SDS011;12020;51.384;6.908;2024-03-17T05:14:27;10.25;;;8.32;;
23684;SDS011;12020;51.384;6.908;2024-03-17T05:16:55;10.27;;;8.40;;
23684;SDS011;12020;51.384;6.908;2024-03-17T05:19:21;9.30;;;7.65;;
23684;SDS011;12020;51.384;6.908;2024-03-17T05:21:48;10.32;;;8.15;;
23684;SDS011;12020;51.384;6.908;2024-03-17T05:24:14;9.02;;;7.70;;
23684;SDS011;12020;51.384;6.908;2024-03-17T05:26:42;8.77;;;7.87;;
23684;SDS011;12020;51.384;6.908;2024-03-17T05:29:08;8.80;;;7.90;;
23684;SDS011;12020;51.384;6.908;2024-03-17T05:31:35;10.82;;;7.63;;
23684;SDS011;12020;51.384;6.908;2024-03-17T05:34:01;7.97;;;7.18;;
23684;SDS011;12020;51.384;6.908;2024-03-17T05:36:28;8.40;;;7.20;;
23684;SDS011;12020;51.384;6.908;2024-03-17T05:38:59;8.27;;;7.30;;
23684;SDS011;12020;51.384;6.908;2024-03-17T05:41:25;8.93;;;7.20;;
23684;SDS011;12020;51.384;6.908;2024-03-17T05:43:52;7.85;;;6.95;;
23684;SDS011;12020;51.384;6.908;2024-03-17T05:46:18;7.80;;;6.88;;
23684;SDS011;12020;51.384;6.908;2024-03-17T05:48:44;8.43;;;7.00;;
23684;SDS011;12020;51.384;6.908;2024-03-17T05:51:12;7.23;;;6.53;;
23684;SDS011;12020;51.384;6.908;2024-03-17T05:53:39;7.35;;;6.65;;
23684;SDS011;12020;51.384;6.908;2024-03-17T05:56:05;8.45;;;7.22;;
23684;SDS011;12020;51.384;6.908;2024-03-17T05:58:36;8.07;;;7.03;;
23684;SDS011;12020;51.384;6.908;2024-03-17T06:01:03;8.10;;;6.63;;
23684;SDS011;12020;51.384;6.908;2024-03-17T06:03:29;7.30;;;6.50;;
23684;SDS011;12020;51.384;6.908;2024-03-17T06:05:57;7.70;;;6.90;;
23684;SDS011;12020;51.384;6.908;2024-03-17T06:08:25;8.60;;;6.93;;
23684;SDS011;12020;51.384;6.908;2024-03-17T06:10:52;9.15;;;6.85;;
23684;SDS011;12020;51.384;6.908;2024-03-17T06:13:19;7.72;;;6.68;;
23684;SDS011;12020;51.384;6.908;2024-03-17T06:15:46;8.57;;;7.03;;
23684;SDS011;12020;51.384;6.908;2024-03-17T06:18:12;8.18;;;7.32;;
23684;SDS011;12020;51.384;6.908;2024-03-17T06:20:40;7.50;;;6.60;;
23684;SDS011;12020;51.384;6.908;2024-03-17T06:23:22;6.73;;;6.03;;
23684;SDS011;12020;51.384;6.908;2024-03-17T06:25:50;8.18;;;6.20;;
23684;SDS011;12020;51.384;6.908;2024-03-17T06:28:16;6.78;;;6.07;;
23684;SDS011;12020;51.384;6.908;2024-03-17T06:30:43;7.10;;;6.30;;
23684;SDS011;12020;51.384;6.908;2024-03-17T06:33:15;6.68;;;6.07;;
23684;SDS011;12020;51.384;6.908;2024-03-17T06:35:45;6.43;;;5.70;;
23684;SDS011;12020;51.384;6.908;2024-03-17T06:38:14;7.10;;;5.95;;
23684;SDS011;12020;51.384;6.908;2024-03-17T06:40:40;8.02;;;6.22;;
23684;SDS011;12020;51.384;6.908;2024-03-17T06:43:06;7.57;;;6.57;;
23684;SDS011;12020;51.384;6.908;2024-03-17T06:45:33;6.65;;;5.95;;
23684;SDS011;12020;51.384;6.908;2024-03-17T06:47:58;8.13;;;5.87;;
23684;SDS011;12020;51.384;6.908;2024-03-17T06:50:24;7.00;;;6.05;;
23684;SDS011;12020;51.384;6.908;2024-03-17T06:52:50;8.63;;;5.67;;
23684;SDS011;12020;51.384;6.908;2024-03-17T06:55:17;6.47;;;5.60;;
23684;SDS011;12020;51.384;6.908;2024-03-17T06:57:43;6.10;;;5.50;;
23684;SDS011;12020;51.384;6.908;2024-03-17T07:00:09;5.75;;;4.97;;
23684;SDS011;12020;51.384;6.908;2024-03-17T07:02:42;6.25;;;5.20;;
23684;SDS011;12020;51.384;6.908;2024-03-17T07:05:12;6.75;;;4.95;;
23684;SDS011;12020;51.384;6.908;2024-03-17T07:07:41;5.63;;;5.03;;
23684;SDS011;12020;51.384;6.908;2024-03-17T07:10:07;5.47;;;4.97;;
23684;SDS011;12020;51.384;6.908;2024-03-17T07:12:33;6.22;;;5.43;;
23684;SDS011;12020;51.384;6.908;2024-03-17T07:14:59;6.50;;;5.03;;
23684;SDS011;12020;51.384;6.908;2024-03-17T07:17:25;5.35;;;4.85;;
23684;SDS011;12020;51.384;6.908;2024-03-17T07:19:50;5.47;;;4.88;;
23684;SDS011;12020;51.384;6.908;2024-03-17T07:22:16;5.88;;;4.75;;
23684;SDS011;12020;51.384;6.908;2024-03-17T07:24:42;5.63;;;4.90;;
23684;SDS011;12020;51.384;6.908;2024-03-17T07:27:09;7.30;;;5.03;;
23684;SDS011;12020;51.384;6.908;2024-03-17T07:29:38;6.45;;;4.65;;
23684;SDS011;12020;51.384;6.908;2024-03-17T07:32:04;5.15;;;4.50;;
23684;SDS011;12020;51.384;6.908;2024-03-17T07:34:31;5.50;;;4.30;;
23684;SDS011;12020;51.384;6.908;2024-03-17T07:36:57;5.60;;;4.88;;
23684;SDS011;12020;51.384;6.908;2024-03-17T07:39:28;4.97;;;4.38;;
23684;SDS011;12020;51.384;6.908;2024-03-17T07:41:57;5.10;;;4.60;;
23684;SDS011;12020;51.384;6.908;2024-03-17T07:44:24;5.47;;;4.65;;
23684;SDS011;12020;51.384;6.908;2024-03-17T07:46:50;6.22;;;4.68;;
23684;SDS011;12020;51.384;6.908;2024-03-17T07:49:16;5.50;;;4.50;;
23684;SDS011;12020;51.384;6.908;2024-03-17T07:51:41;5.28;;;4.50;;
23684;SDS011;12020;51.384;6.908;2024-03-17T07:54:09;5.05;;;4.40;;
23684;SDS011;12020;51.384;6.908;2024-03-17T07:56:34;4.60;;;4.20;;
23684;SDS011;12020;51.384;6.908;2024-03-17T07:59:00;4.90;;;3.70;;
23684;SDS011;12020;51.384;6.908;2024-03-17T08:01:25;4.33;;;3.70;;
23684;SDS011;12020;51.384;6.908;2024-03-17T08:03:51;4.80;;;3.85;;
23684;SDS011;12020;51.384;6.908;2024-03-17T08:06:21;5.10;;;3.80;;
23684;SDS011;12020;51.384;6.908;2024-03-17T08:08:47;4.70;;;3.60;;
23684;SDS011;12020;51.384;6.908;2024-03-17T08:11:12;3.37;;;3.07;;
23684;SDS011;12020;51.384;6.908;2024-03-17T08:13:38;3.63;;;2.90;;
23684;SDS011;12020;51.384;6.908;2024-03-17T08:16:05;2.95;;;2.70;;
23684;SDS011;12020;51.384;6.908;2024-03-17T08:18:32;3.05;;;2.70;;
23684;SDS011;12020;51.384;6.908;2024-03-17T08:20:59;3.38;;;2.40;;
23684;SDS011;12020;51.384;6.908;2024-03-17T08:23:28;3.97;;;2.80;;
23684;SDS011;12020;51.384;6.908;2024-03-17T08:26:00;3.60;;;2.60;;
23684;SDS011;12020;51.384;6.908;2024-03-17T08:28:26;3.20;;;2.53;;
23684;SDS011;12020;51.384;6.908;2024-03-17T08:33:26;3.08;;;2.78;;
23684;SDS011;12020;51.384;6.908;2024-03-17T08:35:55;2.80;;;2.50;;
23684;SDS011;12020;51.384;6.908;2024-03-17T08:38:28;3.05;;;2.40;;
23684;SDS011;12020;51.384;6.908;2024-03-17T08:40:57;4.00;;;2.70;;
23684;SDS011;12020;51.384;6.908;2024-03-17T08:43:28;3.50;;;2.73;;
23684;SDS011;12020;51.384;6.908;2024-03-17T08:45:54;3.53;;;2.33;;
23684;SDS011;12020;51.384;6.908;2024-03-17T08:48:23;4.43;;;2.60;;
23684;SDS011;12020;51.384;6.908;2024-03-17T08:50:50;3.70;;;2.55;;
23684;SDS011;12020;51.384;6.908;2024-03-17T08:53:17;3.57;;;2.80;;
23684;SDS011;12020;51.384;6.908;2024-03-17T08:55:42;3.97;;;2.80;;
23684;SDS011;12020;51.384;6.908;2024-03-17T08:58:09;3.78;;;3.05;;
23684;SDS011;12020;51.384;6.908;2024-03-17T09:00:35;4.90;;;2.97;;
23684;SDS011;12020;51.384;6.908;2024-03-17T09:03:02;3.25;;;2.95;;
23684;SDS011;12020;51.384;6.908;2024-03-17T09:05:29;4.57;;;3.40;;
23684;SDS011;12020;51.384;6.908;2024-03-17T09:07:54;3.78;;;3.00;;
23684;SDS011;12020;51.384;6.908;2024-03-17T09:10:21;3.25;;;2.90;;
23684;SDS011;12020;51.384;6.908;2024-03-17T09:12:46;4.15;;;3.17;;
23684;SDS011;12020;51.384;6.908;2024-03-17T09:15:12;3.83;;;3.13;;
23684;SDS011;12020;51.384;6.908;2024-03-17T09:17:39;4.05;;;3.00;;
23684;SDS011;12020;51.384;6.908;2024-03-17T09:20:06;4.20;;;3.20;;
23684;SDS011;12020;51.384;6.908;2024-03-17T09:22:36;4.50;;;3.00;;
23684;SDS011;12020;51.384;6.908;2024-03-17T09:25:06;3.67;;;3.17;;
23684;SDS011;12020;51.384;6.908;2024-03-17T09:27:34;4.90;;;2.90;;
23684;SDS011;12020;51.384;6.908;2024-03-17T09:30:06;4.22;;;2.92;;
23684;SDS011;12020;51.384;6.908;2024-03-17T09:32:35;4.70;;;3.42;;
23684;SDS011;12020;51.384;6.908;2024-03-17T09:35:01;3.47;;;2.95;;
23684;SDS011;12020;51.384;6.908;2024-03-17T09:37:30;3.60;;;3.00;;
23684;SDS011;12020;51.384;6.908;2024-03-17T09:39:59;4.47;;;3.33;;
23684;SDS011;12020;51.384;6.908;2024-03-17T09:42:26;4.10;;;3.55;;
23684;SDS011;12020;51.384;6.908;2024-03-17T09:44:52;4.13;;;3.20;;
23684;SDS011;12020;51.384;6.908;2024-03-17T09:47:22;4.45;;;3.67;;
23684;SDS011;12020;51.384;6.908;2024-03-17T09:49:50;3.80;;;3.30;;
23684;SDS011;12020;51.384;6.908;2024-03-17T09:52:22;4.85;;;3.42;;
23684;SDS011;12020;51.384;6.908;2024-03-17T09:54:54;4.47;;;3.90;;
23684;SDS011;12020;51.384;6.908;2024-03-17T09:57:37;4.72;;;4.22;;
23684;SDS011;12020;51.384;6.908;2024-03-17T10:00:09;4.28;;;3.70;;
23684;SDS011;12020;51.384;6.908;2024-03-17T10:02:42;5.07;;;3.65;;
23684;SDS011;12020;51.384;6.908;2024-03-17T10:05:18;4.00;;;3.53;;
23684;SDS011;12020;51.384;6.908;2024-03-17T10:07:49;5.00;;;3.90;;
23684;SDS011;12020;51.384;6.908;2024-03-17T10:10:15;4.43;;;3.75;;
23684;SDS011;12020;51.384;6.908;2024-03-17T10:12:43;4.50;;;3.58;;
23684;SDS011;12020;51.384;6.908;2024-03-17T10:15:13;4.05;;;3.60;;
23684;SDS011;12020;51.384;6.908;2024-03-17T10:17:39;4.18;;;3.75;;
23684;SDS011;12020;51.384;6.908;2024-03-17T10:20:18;4.95;;;3.60;;
23684;SDS011;12020;51.384;6.908;2024-03-17T10:22:58;5.15;;;3.88;;
23684;SDS011;12020;51.384;6.908;2024-03-17T10:25:39;5.37;;;4.27;;
23684;SDS011;12020;51.384;6.908;2024-03-17T10:28:11;4.60;;;3.60;;
23684;SDS011;12020;51.384;6.908;2024-03-17T10:30:38;6.22;;;4.13;;
23684;SDS011;12020;51.384;6.908;2024-03-17T10:33:05;4.10;;;3.70;;
23684;SDS011;12020;51.384;6.908;2024-03-17T10:35:37;4.97;;;3.97;;
23684;SDS011;12020;51.384;6.908;2024-03-17T10:38:07;5.43;;;3.80;;
23684;SDS011;12020;51.384;6.908;2024-03-17T10:40:34;4.88;;;4.07;;
23684;SDS011;12020;51.384;6.908;2024-03-17T10:43:04;5.00;;;4.15;;
23684;SDS011;12020;51.384;6.908;2024-03-17T10:45:32;5.53;;;4.20;;
23684;SDS011;12020;51.384;6.908;2024-03-17T10:48:03;5.90;;;3.97;;
23684;SDS011;12020;51.384;6.908;2024-03-17T10:50:36;5.05;;;3.92;;
23684;SDS011;12020;51.384;6.908;2024-03-17T10:53:06;5.32;;;3.97;;
23684;SDS011;12020;51.384;6.908;2024-03-17T10:55:43;5.53;;;3.92;;
23684;SDS011;12020;51.384;6.908;2024-03-17T11:00:59;4.90;;;4.07;;
23684;SDS011;12020;51.384;6.908;2024-03-17T11:03:32;6.17;;;4.07;;
23684;SDS011;12020;51.384;6.908;2024-03-17T11:06:00;4.37;;;3.83;;
23684;SDS011;12020;51.384;6.908;2024-03-17T11:08:29;6.07;;;4.03;;
23684;SDS011;12020;51.384;6.908;2024-03-17T11:10:57;4.47;;;3.97;;
23684;SDS011;12020;51.384;6.908;2024-03-17T11:13:27;6.05;;;4.07;;
23684;SDS011;12020;51.384;6.908;2024-03-17T11:15:55;5.53;;;4.07;;
23684;SDS011;12020;51.384;6.908;2024-03-17T11:20:59;4.40;;;4.00;;
23684;SDS011;12020;51.384;6.908;2024-03-17T11:23:34;4.93;;;4.43;;
23684;SDS011;12020;51.384;6.908;2024-03-17T11:26:02;5.70;;;3.95;;
23684;SDS011;12020;51.384;6.908;2024-03-17T11:34:28;5.00;;;4.10;;
23684;SDS011;12020;51.384;6.908;2024-03-17T11:36:58;6.25;;;4.03;;
23684;SDS011;12020;51.384;6.908;2024-03-17T11:42:21;5.07;;;3.93;;
23684;SDS011;12020;51.384;6.908;2024-03-17T11:47:47;4.28;;;3.65;;
23684;SDS011;12020;51.384;6.908;2024-03-17T11:50:13;4.55;;;3.95;;
23684;SDS011;12020;51.384;6.908;2024-03-17T11:52:43;4.70;;;4.10;;
23684;SDS011;12020;51.384;6.908;2024-03-17T11:55:17;5.32;;;4.07;;
23684;SDS011;12020;51.384;6.908;2024-03-17T11:57:44;4.32;;;3.88;;
23684;SDS011;12020;51.384;6.908;2024-03-17T12:00:21;5.07;;;4.00;;
23684;SDS011;12020;51.384;6.908;2024-03-17T12:02:49;4.80;;;4.07;;
23684;SDS011;12020;51.384;6.908;2024-03-17T12:05:17;4.78;;;4.00;;
23684;SDS011;12020;51.384;6.908;2024-03-17T12:07:44;9.02;;;4.45;;
23684;SDS011;12020;51.384;6.908;2024-03-17T12:10:10;5.17;;;3.87;;
23684;SDS011;12020;51.384;6.908;2024-03-17T12:12:39;5.35;;;4.03;;
23684;SDS011;12020;51.384;6.908;2024-03-17T12:15:18;4.80;;;4.40;;
23684;SDS011;12020;51.384;6.908;2024-03-17T12:17:45;5.40;;;4.10;;
23684;SDS011;12020;51.384;6.908;2024-03-17T12:20:17;4.30;;;3.90;;
23684;SDS011;12020;51.384;6.908;2024-03-17T12:22:46;4.70;;;3.80;;
23684;SDS011;12020;51.384;6.908;2024-03-17T12:25:19;5.97;;;4.32;;
23684;SDS011;12020;51.384;6.908;2024-03-17T12:27:46;4.80;;;4.15;;
23684;SDS011;12020;51.384;6.908;2024-03-17T12:30:14;4.90;;;4.22;;
23684;SDS011;12020;51.384;6.908;2024-03-17T12:32:41;5.82;;;4.32;;
23684;SDS011;12020;51.384;6.908;2024-03-17T12:35:14;5.75;;;4.15;;
23684;SDS011;12020;51.384;6.908;2024-03-17T12:37:43;6.00;;;4.00;;
23684;SDS011;12020;51.384;6.908;2024-03-17T12:40:19;5.70;;;4.10;;
23684;SDS011;12020;51.384;6.908;2024-03-17T12:42:48;5.10;;;3.95;;
23684;SDS011;12020;51.384;6.908;2024-03-17T12:45:20;6.00;;;4.15;;
23684;SDS011;12020;51.384;6.908;2024-03-17T12:47:50;4.88;;;3.80;;
23684;SDS011;12020;51.384;6.908;2024-03-17T12:50:18;4.28;;;3.58;;
23684;SDS011;12020;51.384;6.908;2024-03-17T12:52:55;3.90;;;3.50;;
23684;SDS011;12020;51.384;6.908;2024-03-17T12:55:21;4.63;;;3.43;;
23684;SDS011;12020;51.384;6.908;2024-03-17T12:58:07;4.45;;;3.67;;
23684;SDS011;12020;51.384;6.908;2024-03-17T13:03:35;3.88;;;3.05;;
23684;SDS011;12020;51.384;6.908;2024-03-17T13:06:02;6.87;;;3.90;;
23684;SDS011;12020;51.384;6.908;2024-03-17T13:08:31;7.27;;;3.77;;
23684;SDS011;12020;51.384;6.908;2024-03-17T13:10:58;4.55;;;3.67;;
23684;SDS011;12020;51.384;6.908;2024-03-17T13:13:28;5.28;;;3.67;;
23684;SDS011;12020;51.384;6.908;2024-03-17T13:15:54;4.63;;;3.80;;
23684;SDS011;12020;51.384;6.908;2024-03-17T13:18:20;4.50;;;3.60;;
23684;SDS011;12020;51.384;6.908;2024-03-17T13:20:49;4.93;;;3.60;;
23684;SDS011;12020;51.384;6.908;2024-03-17T13:23:15;4.05;;;3.53;;
23684;SDS011;12020;51.384;6.908;2024-03-17T13:25:41;5.53;;;3.78;;
23684;SDS011;12020;51.384;6.908;2024-03-17T13:28:09;6.60;;;3.40;;
23684;SDS011;12020;51.384;6.908;2024-03-17T13:30:35;4.65;;;3.30;;
23684;SDS011;12020;51.384;6.908;2024-03-17T13:33:01;4.07;;;3.60;;
23684;SDS011;12020;51.384;6.908;2024-03-17T13:35:33;5.38;;;3.30;;
23684;SDS011;12020;51.384;6.908;2024-03-17T13:38:03;4.85;;;3.38;;
23684;SDS011;12020;51.384;6.908;2024-03-17T13:40:28;4.00;;;3.10;;
23684;SDS011;12020;51.384;6.908;2024-03-17T13:42:55;4.43;;;3.50;;
23684;SDS011;12020;51.384;6.908;2024-03-17T13:45:22;4.25;;;3.40;;
23684;SDS011;12020;51.384;6.908;2024-03-17T13:47:56;5.57;;;3.92;;
23684;SDS011;12020;51.384;6.908;2024-03-17T13:50:22;5.13;;;3.50;;
23684;SDS011;12020;51.384;6.908;2024-03-17T13:52:49;3.75;;;3.22;;
23684;SDS011;12020;51.384;6.908;2024-03-17T13:55:18;5.63;;;3.20;;
23684;SDS011;12020;51.384;6.908;2024-03-17T13:57:46;3.75;;;3.20;;
23684;SDS011;12020;51.384;6.908;2024-03-17T14:00:14;4.70;;;3.50;;
23684;SDS011;12020;51.384;6.908;2024-03-17T14:02:44;4.20;;;3.20;;
23684;SDS011;12020;51.384;6.908;2024-03-17T14:05:12;4.63;;;3.17;;
23684;SDS011;12020;51.384;6.908;2024-03-17T14:07:38;3.78;;;3.10;;
23684;SDS011;12020;51.384;6.908;2024-03-17T14:10:05;4.20;;;3.00;;
23684;SDS011;12020;51.384;6.908;2024-03-17T14:12:33;4.68;;;2.90;;
23684;SDS011;12020;51.384;6.908;2024-03-17T14:15:00;3.50;;;2.60;;
23684;SDS011;12020;51.384;6.908;2024-03-17T14:17:26;3.85;;;2.90;;
23684;SDS011;12020;51.384;6.908;2024-03-17T14:19:51;3.97;;;2.80;;
23684;SDS011;12020;51.384;6.908;2024-03-17T14:22:18;3.70;;;2.90;;
23684;SDS011;12020;51.384;6.908;2024-03-17T14:24:43;4.43;;;3.13;;
23684;SDS011;12020;51.384;6.908;2024-03-17T14:27:09;3.67;;;3.00;;
23684;SDS011;12020;51.384;6.908;2024-03-17T14:29:37;4.57;;;2.60;;
23684;SDS011;12020;51.384;6.908;2024-03-17T14:32:03;4.38;;;2.90;;
23684;SDS011;12020;51.384;6.908;2024-03-17T14:34:29;3.50;;;2.78;;
23684;SDS011;12020;51.384;6.908;2024-03-17T14:37:00;4.47;;;2.83;;
23684;SDS011;12020;51.384;6.908;2024-03-17T14:39:27;3.42;;;2.53;;
23684;SDS011;12020;51.384;6.908;2024-03-17T14:41:54;3.67;;;2.63;;
23684;SDS011;12020;51.384;6.908;2024-03-17T14:44:20;3.22;;;2.60;;
23684;SDS011;12020;51.384;6.908;2024-03-17T14:46:46;4.10;;;2.50;;
23684;SDS011;12020;51.384;6.908;2024-03-17T14:49:12;3.35;;;2.20;;
23684;SDS011;12020;51.384;6.908;2024-03-17T14:51:38;3.92;;;2.33;;
23684;SDS011;12020;51.384;6.908;2024-03-17T14:54:03;3.53;;;2.60;;
23684;SDS011;12020;51.384;6.908;2024-03-17T14:56:32;3.63;;;2.53;;
23684;SDS011;12020;51.384;6.908;2024-03-17T14:58:58;3.72;;;2.70;;
23684;SDS011;12020;51.384;6.908;2024-03-17T15:01:23;5.13;;;2.60;;
23684;SDS011;12020;51.384;6.908;2024-03-17T15:03:49;5.03;;;2.67;;
23684;SDS011;12020;51.384;6.908;2024-03-17T15:08:49;4.43;;;2.30;;
23684;SDS011;12020;51.384;6.908;2024-03-17T15:11:15;3.88;;;2.42;;
23684;SDS011;12020;51.384;6.908;2024-03-17T15:13:43;3.70;;;2.23;;
23684;SDS011;12020;51.384;6.908;2024-03-17T15:16:10;3.33;;;2.30;;
23684;SDS011;12020;51.384;6.908;2024-03-17T15:18:37;3.50;;;2.30;;
23684;SDS011;12020;51.384;6.908;2024-03-17T15:21:03;3.00;;;2.20;;
23684;SDS011;12020;51.384;6.908;2024-03-17T15:23:33;4.40;;;2.40;;
23684;SDS011;12020;51.384;6.908;2024-03-17T15:26:02;2.53;;;2.17;;
23684;SDS011;12020;51.384;6.908;2024-03-17T15:28:33;3.20;;;2.25;;
23684;SDS011;12020;51.384;6.908;2024-03-17T15:31:06;4.33;;;2.50;;
23684;SDS011;12020;51.384;6.908;2024-03-17T15:33:36;4.05;;;2.30;;
23684;SDS011;12020;51.384;6.908;2024-03-17T15:36:06;3.58;;;2.28;;
23684;SDS011;12020;51.384;6.908;2024-03-17T15:38:33;4.53;;;2.87;;
23684;SDS011;12020;51.384;6.908;2024-03-17T15:41:04;3.13;;;2.20;;